Boulder, CO

2:29 PM MDT on April 29, 2017 (GMT -0600)
Boulder Fire Training Ctr. | | Change Station
Active Advisory: Winter Storm Warning

Elev 5141 ft 40.07 °N, 105.22 °W | Updated 5 seconds ago

Haze
Haze
31.6 °F
Feels Like 22 °F
N
13.0
Wind Variable Wind from NNW
Gusts 20.0 mph

Today
High -- | Low -- °F
--% Chance of Precip.
Yesterday
High -- | Low -- °F
Precip. -- in
Pressure 30.19 in
Visibility 5.0 miles
Clouds Scattered Clouds 1600 ft
Mostly Cloudy 2100 ft
Overcast 3600 ft
Windchill 22 °F
Dew Point 30 °F
Humidity 92%
Rainfall 0.02 in
Snow Depth Not available.
6:02 AM 7:54 PM
Waxing Crescent, 16% visible
METAR KBDU 292017Z AUTO 02009KT 5SM HZ SCT016 BKN021 OVC036 01/M02 A3019 RMK AO2
Pressure 30.19 in
Visibility 5.0 miles
Clouds Scattered Clouds 1600 ft
Mostly Cloudy 2100 ft
Overcast 3600 ft
Windchill 22 °F
Dew Point 30 °F
Humidity 92%
Rainfall 0.02 in
Snow Depth Not available.
6:02 AM 7:54 PM
Waxing Crescent, 16% visible
METAR KBDU 292017Z AUTO 02009KT 5SM HZ SCT016 BKN021 OVC036 01/M02 A3019 RMK AO2

Get Your Daily Forecast Email!

Thanks for signing up!

Be on the lookout for a verification email in your inbox.

You'll start receiving severe weather alerts in your inbox..

×

10-Day Weather Forecast

Almanac

Astronomy

Apr. 29, 2017 Rise Set
Actual Time
Civil Twilight
Nautical Twilight
Astronomical Twilight
Moon
Length of Visible Light
Length of Day
Tomorrow will be .
, % of the Moon is Illuminated

Today's Extremes

State Highs State Lows

Community

WunderPhotos

WunderBlog® & News

Nearby

Air Quality

  Air Quality AQ Index Pollutant
Not available.

Snow Depth

Station Depth Elevation

Earthquake Activity

City Distance Mag. Time & Date
Minimum magnitude displayed is 2.5.

Coastal Water Temperatures

Place Temperature

Stations

Nearby Weather Stations

Station Location Temp. Windchill Dew Point Humidity Wind Precip. Elev Updated Type
                   

Watches & Warnings

Winter Storm Warning
Issued: 12:39 PM MDT Apr. 29, 2017 – National Weather Service

... Winter Storm Warning remains in effect until 6 PM MDT this
evening...

* timing... snow will gradually decrease this afternoon.

* Snow accumulations... another 1 to 2 inches of snow, mainly in
Jefferson County.


* Wind/visibility... north to northeast winds 10 to 20 mph.
Visibility may be reduced to less than a mile at times.

* Impacts... wet snow may accumulate on already leafed out trees,
resulting in broken tree limbs and scattered power outages. Some
bridges will have slush on them.

Precautionary/preparedness actions...

A Winter Storm Warning means significant amounts of snow are
expected or occurring. This could make travel hazardous.
Residents are encouraged to check Road conditions before you
travel and be prepared for winter travel conditions. Also monitor
snow accumulation on trees and be prepared for possible power
outages.